Time;durP1;ratioP1;P1;durP2;ratioP2;P2;SDS_P1;SDS_P2;PMS_P1;PMS_P2;Temp;Humidity;BMP_temperature;BMP_pressure;BME280_temperature;BME280_humidity;BME280_pressure;Samples;Min_cycle;Max_cycle;Signal;HPM_P1;HPM_P2
2022/06/29 00:00:11;;;;;;;1.27;1.00;;;19.90;1.00;;;;;;5136316;27;20518;-70
2022/06/29 00:02:38;;;;;;;1.00;0.90;;;19.80;1.00;;;;;;5136375;27;20528;-72
2022/06/29 00:05:06;;;;;;;2.20;1.20;;;19.70;1.00;;;;;;5135705;27;20807;-70
2022/06/29 00:07:33;;;;;;;1.30;0.90;;;19.70;1.00;;;;;;5137015;27;20483;-71
2022/06/29 00:10:01;;;;;;;1.60;0.97;;;19.60;1.00;;;;;;5137545;27;20479;-72
2022/06/29 00:12:28;;;;;;;1.13;1.00;;;19.60;1.00;;;;;;5137355;27;20519;-71
2022/06/29 00:14:56;;;;;;;2.10;1.00;;;19.50;1.00;;;;;;5138867;27;20569;-70
2022/06/29 00:17:23;;;;;;;1.30;1.07;;;19.40;5.20;;;;;;5139188;27;20550;-71
2022/06/29 00:19:51;;;;;;;3.40;1.00;;;19.40;7.80;;;;;;5139041;27;20538;-70
2022/06/29 00:22:18;;;;;;;1.20;1.00;;;19.40;12.90;;;;;;5138282;27;20487;-71
2022/06/29 00:24:44;;;;;;;1.00;0.87;;;19.40;12.00;;;;;;5138746;27;20946;-71
2022/06/29 00:27:13;;;;;;;1.43;0.80;;;19.40;16.00;;;;;;5139410;27;20478;-71
2022/06/29 00:29:40;;;;;;;1.47;1.03;;;19.40;13.40;;;;;;5139571;27;20905;-71
2022/06/29 00:32:07;;;;;;;1.37;0.90;;;19.40;17.70;;;;;;5139545;27;20862;-71
2022/06/29 00:34:34;;;;;;;1.20;1.00;;;19.50;13.80;;;;;;5139850;27;20511;-71
2022/06/29 00:37:01;;;;;;;1.27;1.00;;;19.50;8.10;;;;;;5139562;27;20818;-71
2022/06/29 00:39:28;;;;;;;1.20;1.00;;;19.50;1.80;;;;;;5139703;27;20531;-71
2022/06/29 00:41:55;;;;;;;1.20;1.00;;;19.50;4.30;;;;;;5139380;27;20475;-71
2022/06/29 00:44:23;;;;;;;2.87;1.13;;;19.60;1.00;;;;;;5138375;27;20511;-71
2022/06/29 00:46:51;;;;;;;1.13;0.87;;;19.50;1.00;;;;;;5137764;27;20480;-71
2022/06/29 00:49:20;;;;;;;1.30;1.20;;;19.60;1.00;;;;;;5137739;27;20483;-70
2022/06/29 00:51:48;;;;;;;2.33;1.00;;;19.50;1.00;;;;;;5137301;27;20574;-72
2022/06/29 00:54:19;;;;;;;1.10;0.90;;;19.50;1.00;;;;;;5137031;27;20472;-71
2022/06/29 00:56:46;;;;;;;1.13;1.00;;;19.60;1.00;;;;;;5137503;27;20487;-71
2022/06/29 00:59:17;;;;;;;1.03;0.93;;;19.60;1.00;;;;;;5137579;27;20483;-70
2022/06/29 01:01:45;;;;;;;1.33;1.03;;;19.60;1.00;;;;;;5138702;27;20483;-70
2022/06/29 01:04:12;;;;;;;1.33;1.00;;;19.60;1.00;;;;;;5137703;27;20531;-70
2022/06/29 01:06:39;;;;;;;1.47;0.90;;;19.70;1.00;;;;;;5137751;27;20479;-70
2022/06/29 01:09:06;;;;;;;1.00;0.87;;;19.70;1.00;;;;;;5136984;27;20444;-71
2022/06/29 01:11:33;;;;;;;1.33;0.90;;;19.70;1.00;;;;;;5137601;27;20546;-71
2022/06/29 01:14:00;;;;;;;1.57;1.00;;;19.70;1.00;;;;;;5137236;27;20480;-71
2022/06/29 01:16:28;;;;;;;1.47;0.97;;;19.80;1.00;;;;;;5137274;27;20857;-72
2022/06/29 01:18:56;;;;;;;1.00;0.90;;;19.80;1.00;;;;;;5138853;27;20467;-71
2022/06/29 01:21:24;;;;;;;1.67;1.07;;;19.80;1.00;;;;;;5137991;27;20847;-71
2022/06/29 01:23:52;;;;;;;1.17;0.93;;;19.70;1.00;;;;;;5137788;27;20483;-72
2022/06/29 01:26:19;;;;;;;0.90;0.80;;;19.70;1.00;;;;;;5137016;27;20501;-71
2022/06/29 01:28:47;;;;;;;1.10;0.90;;;19.70;1.00;;;;;;5136132;27;20454;-72
2022/06/29 01:31:15;;;;;;;1.27;0.93;;;19.70;1.00;;;;;;5136974;27;20452;-71
2022/06/29 01:33:42;;;;;;;1.10;0.90;;;19.70;1.00;;;;;;5137144;27;20443;-72
2022/06/29 01:36:09;;;;;;;1.13;0.90;;;19.60;1.00;;;;;;5137123;27;20578;-72
2022/06/29 01:38:37;;;;;;;1.20;1.10;;;19.60;1.00;;;;;;5137359;27;20460;-72
2022/06/29 01:41:07;;;;;;;2.90;1.03;;;19.60;1.00;;;;;;5137586;27;20547;-72
2022/06/29 01:43:35;;;;;;;1.03;0.93;;;19.60;1.00;;;;;;5137813;27;20893;-71
2022/06/29 01:46:02;;;;;;;1.53;0.90;;;19.50;1.00;;;;;;5137971;27;20797;-72
2022/06/29 01:48:29;;;;;;;2.13;1.10;;;19.50;1.00;;;;;;5137886;27;20812;-72
2022/06/29 01:50:56;;;;;;;1.10;0.90;;;19.50;1.00;;;;;;5137698;27;20575;-72
2022/06/29 01:53:23;;;;;;;1.10;0.90;;;19.50;1.00;;;;;;5138559;27;20901;-71
2022/06/29 01:55:50;;;;;;;1.20;0.90;;;19.40;1.00;;;;;;5137812;27;20519;-73
2022/06/29 01:58:19;;;;;;;1.10;0.90;;;19.40;6.40;;;;;;5137558;27;20754;-72
2022/06/29 02:00:46;;;;;;;1.00;0.80;;;19.40;9.90;;;;;;5138048;27;20472;-71
2022/06/29 02:03:13;;;;;;;1.33;0.80;;;19.40;4.10;;;;;;5137478;27;20479;-70
2022/06/29 02:05:39;;;;;;;1.13;0.90;;;19.40;1.00;;;;;;5136789;27;20816;-71
2022/06/29 02:08:07;;;;;;;1.57;0.90;;;19.40;1.00;;;;;;5137427;27;20512;-71
2022/06/29 02:10:34;;;;;;;1.13;0.87;;;19.40;1.00;;;;;;5134933;27;20597;-71
2022/06/29 02:13:01;;;;;;;1.10;0.87;;;19.50;1.00;;;;;;5134929;27;20530;-73
2022/06/29 02:15:29;;;;;;;2.00;1.07;;;19.50;1.00;;;;;;5135583;27;20971;-70
2022/06/29 02:17:56;;;;;;;1.20;1.00;;;19.40;1.00;;;;;;5136196;27;20471;-71
2022/06/29 02:20:23;;;;;;;1.37;1.10;;;19.30;3.00;;;;;;5136059;27;20455;-71
2022/06/29 02:22:50;;;;;;;1.47;0.80;;;19.20;14.00;;;;;;5135560;27;20480;-71
2022/06/29 02:25:17;;;;;;;1.10;0.80;;;19.20;19.40;;;;;;5135973;27;20531;-71
2022/06/29 02:27:46;;;;;;;1.20;1.00;;;19.20;17.90;;;;;;5136048;27;20534;-72
2022/06/29 02:30:14;;;;;;;2.40;0.97;;;19.30;21.40;;;;;;5135937;27;20867;-71
2022/06/29 02:35:27;;;;;;;1.73;1.00;;;19.30;22.40;;;;;;5137082;27;20547;-72
2022/06/29 02:37:54;;;;;;;1.10;1.00;;;19.30;18.50;;;;;;5137322;27;20530;-72
2022/06/29 02:40:21;;;;;;;1.00;0.90;;;19.30;16.10;;;;;;5137527;27;20460;-71
2022/06/29 02:42:48;;;;;;;1.50;1.10;;;19.20;14.00;;;;;;5137524;27;20503;-72
2022/06/29 02:45:15;;;;;;;1.97;1.00;;;19.10;23.10;;;;;;5137254;27;20895;-70
2022/06/29 02:47:43;;;;;;;1.20;0.90;;;19.10;30.80;;;;;;5137631;27;20890;-72
2022/06/29 02:50:10;;;;;;;2.50;1.00;;;19.20;24.50;;;;;;5136934;27;20452;-71
2022/06/29 02:52:37;;;;;;;1.30;0.97;;;19.10;23.80;;;;;;5137478;27;20566;-72
2022/06/29 02:55:05;;;;;;;1.90;1.00;;;19.10;27.90;;;;;;5136894;27;20483;-71
2022/06/29 02:57:32;;;;;;;1.17;0.90;;;19.10;32.60;;;;;;5137488;27;20484;-71
2022/06/29 02:59:58;;;;;;;1.23;1.10;;;19.00;34.60;;;;;;5137070;27;20534;-71
2022/06/29 03:02:25;;;;;;;1.30;0.93;;;19.00;38.60;;;;;;5136954;27;20480;-71
2022/06/29 03:04:54;;;;;;;1.47;1.00;;;19.00;34.30;;;;;;5136979;28;20534;-71
2022/06/29 03:07:21;;;;;;;1.40;1.10;;;19.00;35.30;;;;;;5136505;28;20811;-72
2022/06/29 03:09:48;;;;;;;1.40;1.13;;;19.00;36.50;;;;;;5135936;28;20448;-71
2022/06/29 03:12:14;;;;;;;1.53;0.87;;;19.00;39.20;;;;;;5136471;28;20524;-72
2022/06/29 03:14:41;;;;;;;1.30;0.93;;;19.10;37.90;;;;;;5135962;28;20538;-72
2022/06/29 03:17:08;;;;;;;1.50;0.80;;;19.00;23.70;;;;;;5136070;28;20578;-72
2022/06/29 03:19:35;;;;;;;1.20;1.10;;;19.00;19.60;;;;;;5136135;28;20797;-71
2022/06/29 03:22:04;;;;;;;1.33;1.00;;;19.00;19.80;;;;;;5136367;27;20546;-72
2022/06/29 03:24:31;;;;;;;1.27;0.90;;;18.90;25.50;;;;;;5136612;27;20516;-71
2022/06/29 03:26:58;;;;;;;1.50;1.00;;;18.90;34.90;;;;;;5136939;27;21115;-72
2022/06/29 03:29:25;;;;;;;5.77;1.10;;;18.90;38.80;;;;;;5136949;27;20483;-72
2022/06/29 03:31:52;;;;;;;1.13;0.97;;;18.90;34.90;;;;;;5137449;27;20498;-70
2022/06/29 03:34:18;;;;;;;1.20;1.00;;;19.00;32.00;;;;;;5139185;27;20879;-70
2022/06/29 03:36:45;;;;;;;1.20;0.90;;;18.90;33.50;;;;;;5140709;27;20526;-71
2022/06/29 03:39:14;;;;;;;2.40;1.07;;;18.90;38.80;;;;;;5140090;27;20483;-71
2022/06/29 03:41:41;;;;;;;1.33;0.90;;;18.90;41.50;;;;;;5140551;27;20487;-71
2022/06/29 03:44:07;;;;;;;1.53;1.07;;;18.90;40.40;;;;;;5140429;27;20535;-71
2022/06/29 03:46:34;;;;;;;1.27;0.97;;;18.90;38.10;;;;;;5140331;27;20538;-71
2022/06/29 03:49:01;;;;;;;1.30;1.20;;;18.90;35.30;;;;;;5139095;27;20454;-72
2022/06/29 03:51:28;;;;;;;2.10;1.10;;;19.00;39.30;;;;;;5139156;27;20921;-72
2022/06/29 03:53:55;;;;;;;1.43;1.07;;;19.00;38.10;;;;;;5139591;27;20731;-71
2022/06/29 03:56:23;;;;;;;1.47;1.10;;;19.10;37.60;;;;;;5139941;27;20574;-71
2022/06/29 03:58:50;;;;;;;1.10;1.00;;;19.20;26.70;;;;;;5139367;27;20496;-71
2022/06/29 04:01:17;;;;;;;1.27;1.00;;;19.30;22.20;;;;;;5138908;27;20451;-71
2022/06/29 04:03:44;;;;;;;2.33;0.90;;;19.30;23.10;;;;;;5138556;27;20500;-71
2022/06/29 04:06:11;;;;;;;1.90;1.20;;;19.30;19.40;;;;;;5139512;27;20487;-72
2022/06/29 04:08:38;;;;;;;1.23;1.00;;;19.20;10.70;;;;;;5139810;27;20903;-71
2022/06/29 04:11:48;;;;;;;1.20;1.00;;;19.20;13.20;;;;;;5139505;27;20501;-72
2022/06/29 04:13:53;;;;;;;1.30;1.10;;;19.10;14.60;;;;;;5139312;27;20447;-72
2022/06/29 04:16:20;;;;;;;1.30;1.00;;;19.00;20.90;;;;;;5138207;27;20540;-71
2022/06/29 04:18:47;;;;;;;1.30;0.93;;;18.90;21.40;;;;;;5138000;27;20798;-71
2022/06/29 04:21:14;;;;;;;1.40;0.90;;;18.90;25.10;;;;;;5136528;27;20767;-71
2022/06/29 04:23:41;;;;;;;1.23;0.97;;;18.90;39.90;;;;;;5137063;27;20489;-71
2022/06/29 04:26:08;;;;;;;1.30;0.97;;;18.90;42.80;;;;;;5138527;27;20487;-71
2022/06/29 04:28:36;;;;;;;1.30;1.00;;;19.00;42.30;;;;;;5137630;27;20467;-71
2022/06/29 04:31:04;;;;;;;2.60;0.90;;;19.00;23.30;;;;;;5138491;27;20447;-71
2022/06/29 04:33:31;;;;;;;1.40;0.90;;;19.10;22.30;;;;;;5138936;27;20514;-71
2022/06/29 04:35:58;;;;;;;1.50;1.00;;;19.20;19.20;;;;;;5137268;27;20782;-71
2022/06/29 04:38:25;;;;;;;1.20;0.93;;;19.20;14.40;;;;;;5136811;27;20468;-71
2022/06/29 04:40:52;;;;;;;1.20;0.90;;;19.20;12.40;;;;;;5136251;27;20547;-71
2022/06/29 04:43:19;;;;;;;1.50;1.10;;;19.20;14.10;;;;;;5137164;27;20459;-71
2022/06/29 04:48:31;;;;;;;1.40;0.90;;;19.20;6.20;;;;;;5139016;27;20435;-70
2022/06/29 04:50:58;;;;;;;1.17;1.00;;;19.20;8.90;;;;;;5135702;27;20503;-70
2022/06/29 04:53:25;;;;;;;1.30;0.90;;;19.10;18.90;;;;;;5135189;27;20487;-71
2022/06/29 04:55:52;;;;;;;1.53;1.10;;;19.20;19.00;;;;;;5135991;27;20495;-70
2022/06/29 04:58:19;;;;;;;2.00;1.10;;;19.20;15.50;;;;;;5135899;27;20542;-70
2022/06/29 05:00:46;;;;;;;1.20;1.10;;;19.20;14.60;;;;;;5136729;27;20537;-71
2022/06/29 05:03:13;;;;;;;1.43;1.10;;;19.20;11.00;;;;;;5135585;27;20444;-71
2022/06/29 05:05:41;;;;;;;2.43;1.13;;;19.10;20.10;;;;;;5137029;27;20543;-70
2022/06/29 05:08:08;;;;;;;1.10;0.90;;;19.10;29.10;;;;;;5136450;27;20535;-71
2022/06/29 05:10:35;;;;;;;1.70;1.20;;;19.20;25.80;;;;;;5133456;27;20536;-71
2022/06/29 05:13:03;;;;;;;1.67;1.30;;;19.30;17.60;;;;;;5137480;27;20484;-71
2022/06/29 05:15:29;;;;;;;1.30;1.00;;;19.40;1.00;;;;;;5135959;27;20470;-72
2022/06/29 05:17:56;;;;;;;1.20;1.00;;;19.30;1.00;;;;;;5133549;27;20508;-72
2022/06/29 05:20:23;;;;;;;1.20;1.00;;;19.20;15.70;;;;;;5135738;27;20962;-72
2022/06/29 05:22:52;;;;;;;1.50;1.20;;;19.20;25.00;;;;;;5135164;27;20459;-71
2022/06/29 05:25:19;;;;;;;1.37;1.23;;;19.20;30.10;;;;;;5136255;27;20736;-71
2022/06/29 05:27:46;;;;;;;1.40;1.30;;;19.20;29.30;;;;;;5132771;27;20474;-72
2022/06/29 05:30:13;;;;;;;1.30;1.07;;;19.20;27.20;;;;;;5135192;27;20479;-71
2022/06/29 05:32:40;;;;;;;2.20;1.17;;;19.20;26.10;;;;;;5133179;27;21096;-71
2022/06/29 05:35:08;;;;;;;1.70;1.10;;;19.20;29.90;;;;;;5133004;27;20471;-72
2022/06/29 05:37:35;;;;;;;2.07;1.90;;;19.20;34.60;;;;;;5131683;27;20564;-72
2022/06/29 05:40:05;;;;;;;1.33;1.20;;;19.30;26.10;;;;;;5124949;27;20523;-71
2022/06/29 05:42:32;;;;;;;1.77;1.10;;;19.30;27.40;;;;;;5125105;27;20476;-73
2022/06/29 05:44:59;;;;;;;1.60;1.43;;;19.30;24.40;;;;;;5126165;27;20539;-73
2022/06/29 05:47:26;;;;;;;1.70;1.30;;;19.40;18.70;;;;;;5136655;27;20534;-73
2022/06/29 05:49:52;;;;;;;1.43;1.10;;;19.40;10.60;;;;;;5133608;27;20500;-73
2022/06/29 05:52:19;;;;;;;1.50;1.30;;;19.40;4.30;;;;;;5131599;27;20819;-73
2022/06/29 05:54:46;;;;;;;1.50;1.10;;;19.30;9.10;;;;;;5129332;27;21027;-73
2022/06/29 05:57:15;;;;;;;1.40;1.20;;;19.30;23.80;;;;;;5128742;27;21033;-73
2022/06/29 05:59:41;;;;;;;1.67;1.20;;;19.40;17.10;;;;;;5122304;27;20902;-74
2022/06/29 06:02:08;;;;;;;1.30;1.00;;;19.40;16.20;;;;;;5124723;27;20452;-74
2022/06/29 06:04:36;;;;;;;1.40;1.13;;;19.40;16.60;;;;;;5130516;27;20504;-73
2022/06/29 06:07:04;;;;;;;3.00;1.10;;;19.50;21.70;;;;;;5135103;27;20936;-74
2022/06/29 06:09:32;;;;;;;1.87;1.50;;;19.50;3.10;;;;;;5131562;27;20450;-74
2022/06/29 06:11:59;;;;;;;1.53;1.10;;;19.60;1.00;;;;;;5134340;27;20898;-73
2022/06/29 06:14:27;;;;;;;1.30;1.10;;;19.70;1.00;;;;;;5129043;27;20492;-74
2022/06/29 06:16:54;;;;;;;1.30;1.00;;;19.90;1.00;;;;;;5133825;27;20922;-73
2022/06/29 06:19:21;;;;;;;1.50;1.30;;;20.10;1.00;;;;;;5135855;27;20530;-74
2022/06/29 06:21:48;;;;;;;1.60;1.20;;;20.30;1.00;;;;;;5127827;27;20455;-73
2022/06/29 06:24:15;;;;;;;1.40;1.20;;;20.50;1.00;;;;;;5129295;27;20811;-73
2022/06/29 06:26:43;;;;;;;2.00;1.37;;;20.60;1.00;;;;;;5126039;27;20484;-74
2022/06/29 06:29:10;;;;;;;1.60;1.30;;;20.80;1.00;;;;;;5132527;27;20527;-73
2022/06/29 06:31:40;;;;;;;1.40;1.30;;;21.00;1.00;;;;;;5133799;27;21026;-74
2022/06/29 06:34:07;;;;;;;1.30;1.00;;;21.20;1.00;;;;;;5134018;27;20536;-75
2022/06/29 06:36:34;;;;;;;1.70;1.13;;;21.40;1.00;;;;;;5131645;27;21164;-73
2022/06/29 06:39:01;;;;;;;1.57;1.13;;;21.50;1.00;;;;;;5114839;28;21119;-73
2022/06/29 06:41:26;;;;;;;2.10;1.07;;;21.50;99.90;;;;;;5135082;27;20487;-73
2022/06/29 06:43:55;;;;;;;1.10;0.90;;;21.50;1.00;;;;;;5133880;27;20467;-73
2022/06/29 06:46:22;;;;;;;1.60;1.10;;;21.50;99.90;;;;;;5132726;27;20254;-73
2022/06/29 06:48:51;;;;;;;1.63;1.50;;;21.50;1.00;;;;;;5133838;27;20519;-73
2022/06/29 06:51:19;;;;;;;1.97;1.80;;;21.60;1.00;;;;;;5122822;27;21341;-73
2022/06/29 06:53:47;;;;;;;2.73;2.53;;;21.70;99.90;;;;;;5135302;27;21024;-73
2022/06/29 06:56:14;;;;;;;2.13;1.10;;;21.70;99.90;;;;;;5133789;28;20928;-74
2022/06/29 06:58:41;;;;;;;2.70;1.70;;;21.70;99.90;;;;;;5133859;28;20447;-74
2022/06/29 07:01:10;;;;;;;3.27;1.40;;;21.80;99.90;;;;;;5134313;28;20474;-74
2022/06/29 07:03:37;;;;;;;2.80;1.20;;;21.80;99.90;;;;;;5133123;28;20475;-74
2022/06/29 07:06:06;;;;;;;1.53;1.17;;;21.90;1.00;;;;;;5134316;28;20483;-74
2022/06/29 07:08:34;;;;;;;3.10;1.10;;;22.00;1.00;;;;;;5138449;27;20538;-74
2022/06/29 07:11:01;;;;;;;1.50;1.10;;;22.10;99.90;;;;;;5144461;27;20494;-73
2022/06/29 07:13:29;;;;;;;1.30;1.20;;;22.30;1.00;;;;;;5137592;27;20534;-74
2022/06/29 07:15:56;;;;;;;3.13;1.20;;;22.30;75.20;;;;;;5138538;27;20923;-74
2022/06/29 07:18:23;;;;;;;1.60;1.10;;;22.30;99.90;;;;;;5138381;27;20479;-74
2022/06/29 07:20:50;;;;;;;1.83;1.10;;;22.50;1.00;;;;;;5138862;27;20472;-74
2022/06/29 07:23:20;;;;;;;2.50;1.10;;;22.50;99.90;;;;;;5139598;27;20424;-75
2022/06/29 07:25:47;;;;;;;2.13;1.27;;;22.70;99.90;;;;;;5142735;27;20450;-76
2022/06/29 07:28:14;;;;;;;1.70;1.60;;;22.90;1.00;;;;;;5138113;27;20440;-76
2022/06/29 07:30:42;;;;;;;5.63;1.73;;;23.00;99.90;;;;;;5138302;27;20546;-76
2022/06/29 07:33:09;;;;;;;2.70;1.37;;;22.90;99.90;;;;;;5137965;27;20528;-75
2022/06/29 07:35:36;;;;;;;1.60;1.30;;;22.90;1.00;;;;;;5138886;27;20479;-75
2022/06/29 07:38:03;;;;;;;5.07;4.57;;;23.00;1.00;;;;;;5141557;27;20587;-74
2022/06/29 07:40:32;;;;;;;3.00;1.70;;;23.20;11.40;;;;;;5145573;27;20534;-74
2022/06/29 07:42:58;;;;;;;4.50;1.80;;;23.20;1.00;;;;;;5137144;27;20535;-75
2022/06/29 07:45:25;;;;;;;1.97;1.77;;;23.30;1.00;;;;;;5138118;27;20526;-74
2022/06/29 07:47:52;;;;;;;1.60;1.50;;;23.40;1.00;;;;;;5138134;27;20459;-75
2022/06/29 07:50:19;;;;;;;2.10;1.40;;;23.50;1.00;;;;;;5139075;27;20460;-75
2022/06/29 07:52:46;;;;;;;2.03;1.60;;;23.40;1.00;;;;;;5138974;27;20721;-75
2022/06/29 07:55:13;;;;;;;2.20;1.70;;;23.50;1.00;;;;;;5143551;27;20526;-75
2022/06/29 07:57:43;;;;;;;4.00;1.27;;;23.50;1.00;;;;;;5152789;27;20657;-75
2022/06/29 08:00:11;;;;;;;3.00;1.20;;;23.60;99.90;;;;;;5137969;27;20880;-75
2022/06/29 08:02:38;;;;;;;3.30;1.50;;;23.60;99.90;;;;;;5137110;27;20891;-75
2022/06/29 08:05:06;;;;;;;2.33;1.10;;;23.70;99.90;;;;;;5137231;27;20501;-75
2022/06/29 08:07:33;;;;;;;7.63;1.73;;;23.80;1.00;;;;;;5138434;27;20436;-75
2022/06/29 08:10:01;;;;;;;12.90;2.40;;;23.90;1.00;;;;;;5138962;27;20470;-75
2022/06/29 08:12:28;;;;;;;5.13;1.67;;;24.00;1.00;;;;;;5137621;27;20550;-76
2022/06/29 08:14:58;;;;;;;1.80;1.40;;;24.10;1.00;;;;;;5138098;27;20918;-75
2022/06/29 08:17:25;;;;;;;3.67;1.60;;;24.10;1.00;;;;;;5137272;27;20475;-75
2022/06/29 08:19:52;;;;;;;4.10;1.40;;;24.20;1.00;;;;;;5136378;27;20496;-74
2022/06/29 08:22:20;;;;;;;1.40;1.13;;;24.30;1.00;;;;;;5141326;27;20571;-74
2022/06/29 08:24:49;;;;;;;2.37;1.57;;;24.30;1.00;;;;;;5151214;27;20460;-74
2022/06/29 08:27:21;;;;;;;1.40;1.27;;;24.50;99.90;;;;;;5137472;27;20454;-75
2022/06/29 08:29:48;;;;;;;2.73;1.40;;;24.50;99.90;;;;;;5136645;27;20542;-74
2022/06/29 08:32:16;;;;;;;3.00;1.43;;;24.60;99.90;;;;;;5137685;27;20475;-74
2022/06/29 08:34:44;;;;;;;1.40;1.20;;;24.50;99.90;;;;;;5136687;27;20444;-75
2022/06/29 08:37:11;;;;;;;1.77;1.63;;;24.60;99.90;;;;;;5137932;27;20499;-75
2022/06/29 08:39:40;;;;;;;2.30;1.77;;;24.60;99.90;;;;;;5137223;27;20440;-75
2022/06/29 08:42:07;;;;;;;1.67;1.30;;;24.50;99.90;;;;;;5137674;27;20483;-75
2022/06/29 08:44:36;;;;;;;1.50;1.30;;;24.60;99.90;;;;;;5133651;27;20493;-76
2022/06/29 08:47:03;;;;;;;1.83;1.30;;;24.80;99.90;;;;;;5137942;27;20482;-75
2022/06/29 08:49:32;;;;;;;1.70;1.60;;;25.10;99.90;;;;;;5140068;27;20813;-74
2022/06/29 08:52:00;;;;;;;1.53;1.30;;;25.10;99.90;;;;;;5158492;27;20511;-74
2022/06/29 08:54:30;;;;;;;2.30;1.20;;;25.00;99.90;;;;;;5158774;27;20801;-75
2022/06/29 08:56:59;;;;;;;2.27;1.73;;;25.10;99.90;;;;;;5152661;27;20534;-75
2022/06/29 08:59:26;;;;;;;1.57;1.30;;;25.10;99.90;;;;;;5158782;27;20504;-75
2022/06/29 09:01:53;;;;;;;1.93;1.30;;;25.20;99.90;;;;;;5159139;27;20912;-75
2022/06/29 09:04:20;;;;;;;1.90;1.50;;;25.00;99.90;;;;;;5159701;27;20908;-75
2022/06/29 09:06:53;;;;;;;1.73;1.30;;;25.10;99.90;;;;;;5158882;27;20895;-76
2022/06/29 09:09:22;;;;;;;1.50;1.10;;;25.10;99.90;;;;;;5159357;27;20474;-75
2022/06/29 09:11:51;;;;;;;2.40;1.10;;;25.50;99.90;;;;;;5159953;27;20951;-76
2022/06/29 09:14:19;;;;;;;1.70;1.40;;;25.70;23.50;;;;;;5158430;27;20443;-75
2022/06/29 09:16:55;;;;;;;1.80;1.50;;;25.90;1.00;;;;;;5159558;27;20877;-75
2022/06/29 09:19:24;;;;;;;1.30;1.10;;;25.90;1.00;;;;;;5159210;27;20536;-76
2022/06/29 09:21:54;;;;;;;1.60;1.47;;;26.20;1.00;;;;;;5158581;27;20450;-75
2022/06/29 09:24:23;;;;;;;1.40;1.20;;;26.40;1.00;;;;;;5159165;27;20493;-75
2022/06/29 09:26:51;;;;;;;1.27;1.17;;;26.60;1.00;;;;;;5139656;27;20878;-76
2022/06/29 09:29:24;;;;;;;3.50;3.20;;;26.40;1.00;;;;;;5157827;27;21166;-76
2022/06/29 09:32:14;;;;;;;5.60;3.73;;;26.60;1.00;;;;;;5156232;27;20457;-76
2022/06/29 09:34:43;;;;;;;1.60;1.50;;;26.50;1.00;;;;;;5141379;27;20504;-75
2022/06/29 09:37:14;;;;;;;2.10;1.40;;;26.30;1.00;;;;;;5138134;27;20554;-75
2022/06/29 09:39:43;;;;;;;2.50;1.30;;;26.20;1.00;;;;;;5137025;27;20471;-76
2022/06/29 09:42:13;;;;;;;1.10;1.00;;;26.00;1.00;;;;;;5135992;27;20554;-76
2022/06/29 09:44:40;;;;;;;1.63;1.30;;;26.00;1.00;;;;;;5135995;27;20448;-76
2022/06/29 09:47:09;;;;;;;3.57;1.40;;;25.80;1.00;;;;;;5137375;27;20547;-76
2022/06/29 09:49:37;;;;;;;1.20;1.10;;;25.80;1.00;;;;;;5136241;27;20454;-77
2022/06/29 09:52:06;;;;;;;1.43;1.00;;;25.80;1.00;;;;;;5136008;27;20480;-76
2022/06/29 09:54:37;;;;;;;2.93;1.30;;;25.70;1.00;;;;;;5136756;27;20472;-75
2022/06/29 09:57:06;;;;;;;2.10;1.23;;;25.20;1.00;;;;;;5136698;27;20451;-76
2022/06/29 10:02:36;;;;;;;3.73;1.47;;;25.10;4.10;;;;;;5136249;27;20736;-77
2022/06/29 10:05:15;;;;;;;1.37;1.13;;;25.00;9.60;;;;;;5136140;27;20534;-76
2022/06/29 10:07:45;;;;;;;1.50;1.20;;;25.10;1.00;;;;;;5136626;27;20443;-78
2022/06/29 10:10:16;;;;;;;1.20;1.10;;;25.10;4.70;;;;;;5135983;27;20448;-76
2022/06/29 10:16:13;;;;;;;1.10;1.00;;;25.20;25.70;;;;;;5136048;27;20431;-77
2022/06/29 10:18:54;;;;;;;1.60;1.47;;;25.20;41.30;;;;;;5135426;27;20475;-76
2022/06/29 10:21:24;;;;;;;1.10;1.00;;;25.30;45.00;;;;;;5135355;27;20594;-76
2022/06/29 10:23:53;;;;;;;1.83;1.00;;;25.30;44.60;;;;;;5135381;27;20482;-75
2022/06/29 10:26:50;;;;;;;1.23;1.00;;;25.30;33.90;;;;;;5135191;27;20558;-78
2022/06/29 10:29:29;;;;;;;1.30;1.10;;;25.10;83.40;;;;;;5135344;27;20535;-77
2022/06/29 10:32:23;;;;;;;1.63;1.00;;;25.10;99.90;;;;;;5136441;27;20926;-77
2022/06/29 10:35:08;;;;;;;2.17;1.07;;;25.10;99.90;;;;;;5135976;27;21070;-76
2022/06/29 10:37:50;;;;;;;1.10;0.90;;;25.10;99.90;;;;;;5137295;27;20786;-77
2022/06/29 10:40:18;;;;;;;7.70;7.00;;;25.50;93.70;;;;;;5136192;27;20447;-78
2022/06/29 10:45:36;;;;;;;1.27;1.00;;;25.90;1.00;;;;;;5135962;27;20450;-76
2022/06/29 10:48:17;;;;;;;1.77;1.00;;;26.20;1.00;;;;;;5136591;27;20500;-77
2022/06/29 10:50:46;;;;;;;1.90;1.07;;;26.50;1.00;;;;;;5135602;27;20540;-77
2022/06/29 10:53:16;;;;;;;1.50;1.23;;;26.60;1.00;;;;;;5136254;27;20790;-76
2022/06/29 10:55:45;;;;;;;0.90;0.80;;;26.80;1.00;;;;;;5123479;27;21058;-77
2022/06/29 10:58:14;;;;;;;3.50;3.20;;;27.10;1.00;;;;;;5123912;27;20472;-76
2022/06/29 11:00:43;;;;;;;2.57;2.37;;;27.10;1.00;;;;;;5116794;27;20864;-78
2022/06/29 11:03:13;;;;;;;1.13;1.00;;;27.10;1.00;;;;;;5113832;28;20456;-77
2022/06/29 11:13:59;;;;;;;2.23;1.00;;;27.50;1.00;;;;;;5134127;27;21065;-77
2022/06/29 11:16:35;;;;;;;2.50;1.30;;;27.20;1.00;;;;;;5135107;27;20550;-78
2022/06/29 11:19:03;;;;;;;1.10;1.00;;;27.30;1.00;;;;;;5134445;27;20475;-77
2022/06/29 11:21:30;;;;;;;1.40;1.30;;;27.50;1.00;;;;;;5135082;27;20455;-76
2022/06/29 11:24:02;;;;;;;1.10;1.00;;;27.80;1.00;;;;;;5134286;27;20512;-77
2022/06/29 11:26:31;;;;;;;5.70;5.20;;;27.70;1.00;;;;;;5134110;27;20463;-76
2022/06/29 11:28:59;;;;;;;1.20;1.00;;;27.30;1.00;;;;;;5134707;27;20444;-77
2022/06/29 11:31:27;;;;;;;1.07;0.90;;;27.90;1.00;;;;;;5134509;27;20530;-76
2022/06/29 11:33:57;;;;;;;1.60;1.00;;;28.20;1.00;;;;;;5134315;27;20444;-77
2022/06/29 11:36:27;;;;;;;1.27;1.10;;;28.10;1.00;;;;;;5133684;27;20476;-76
2022/06/29 11:38:55;;;;;;;1.10;0.80;;;28.10;1.00;;;;;;5131810;27;20571;-76
2022/06/29 11:41:25;;;;;;;1.10;0.90;;;28.20;1.00;;;;;;5131812;27;20982;-76
2022/06/29 11:44:05;;;;;;;1.50;1.00;;;28.50;1.00;;;;;;5133394;27;20879;-77
2022/06/29 11:46:35;;;;;;;1.10;1.00;;;28.70;1.00;;;;;;5133016;27;20448;-76
2022/06/29 11:51:53;;;;;;;1.87;0.80;;;28.30;1.00;;;;;;5133062;27;20463;-76
2022/06/29 11:54:36;;;;;;;1.00;0.90;;;28.50;1.00;;;;;;5135805;27;20519;-76
2022/06/29 11:57:06;;;;;;;1.00;0.80;;;28.80;1.00;;;;;;5137767;27;20500;-77
2022/06/29 11:59:35;;;;;;;1.67;1.00;;;29.20;1.00;;;;;;5137624;27;20961;-77
2022/06/29 12:02:04;;;;;;;1.90;0.80;;;29.50;1.00;;;;;;5138298;27;20451;-77
2022/06/29 12:04:33;;;;;;;0.87;0.83;;;29.70;1.00;;;;;;5139076;27;20458;-77
2022/06/29 12:07:07;;;;;;;2.27;1.00;;;30.00;1.00;;;;;;5138688;27;21074;-77
2022/06/29 12:09:37;;;;;;;1.03;0.87;;;30.10;1.00;;;;;;5138048;27;20439;-77
2022/06/29 12:12:05;;;;;;;1.00;0.90;;;30.10;1.00;;;;;;5137542;27;20550;-77
2022/06/29 12:14:34;;;;;;;1.63;1.10;;;29.90;1.00;;;;;;5139101;27;20443;-76
2022/06/29 12:17:02;;;;;;;1.37;0.80;;;29.90;1.00;;;;;;5137964;27;20462;-75
2022/06/29 12:19:29;;;;;;;1.60;0.80;;;29.90;1.00;;;;;;5138548;27;20479;-78
2022/06/29 12:21:57;;;;;;;0.97;0.70;;;30.00;1.00;;;;;;5137033;27;20512;-76
2022/06/29 12:24:25;;;;;;;0.80;0.60;;;29.80;1.00;;;;;;5137042;27;20452;-77
2022/06/29 12:26:53;;;;;;;1.13;0.80;;;30.00;1.00;;;;;;5137506;27;20515;-78
2022/06/29 12:29:20;;;;;;;1.27;0.77;;;30.10;1.00;;;;;;5137883;27;20447;-77
2022/06/29 12:31:49;;;;;;;0.90;0.80;;;30.10;1.00;;;;;;5138179;27;20917;-78
2022/06/29 12:34:16;;;;;;;0.90;0.80;;;29.60;1.00;;;;;;5136423;27;20487;-78
2022/06/29 12:36:43;;;;;;;1.00;0.80;;;29.80;1.00;;;;;;5136502;27;20456;-77
2022/06/29 12:39:12;;;;;;;0.90;0.70;;;30.00;1.00;;;;;;5136717;27;20475;-77
2022/06/29 12:41:39;;;;;;;1.60;0.90;;;29.80;1.00;;;;;;5118275;27;20483;-75
2022/06/29 12:44:06;;;;;;;0.90;0.73;;;29.50;1.00;;;;;;5137240;27;20867;-77
2022/06/29 12:46:39;;;;;;;2.60;0.90;;;29.20;1.00;;;;;;5137333;27;20460;-77
2022/06/29 12:49:07;;;;;;;1.00;0.80;;;28.80;1.00;;;;;;5136378;27;20440;-75
2022/06/29 12:51:35;;;;;;;1.80;0.90;;;28.60;1.00;;;;;;5135227;27;20537;-75
2022/06/29 12:54:01;;;;;;;1.00;0.80;;;28.60;1.00;;;;;;5136169;27;20454;-75
2022/06/29 12:56:28;;;;;;;1.13;0.90;;;28.60;1.00;;;;;;5135367;27;20922;-75
2022/06/29 12:58:58;;;;;;;2.20;0.90;;;28.80;1.00;;;;;;5136529;27;20479;-75
2022/06/29 13:01:25;;;;;;;1.20;0.80;;;28.30;1.00;;;;;;5119154;27;20920;-75
2022/06/29 13:03:52;;;;;;;2.83;0.80;;;28.30;1.00;;;;;;5137849;27;20471;-73
2022/06/29 13:06:20;;;;;;;1.00;0.80;;;28.20;1.00;;;;;;5135539;27;21079;-75
2022/06/29 13:08:48;;;;;;;1.20;0.90;;;28.20;1.00;;;;;;5136521;27;20443;-75
2022/06/29 13:11:15;;;;;;;1.70;1.00;;;28.50;1.00;;;;;;5136381;27;20548;-74
2022/06/29 13:13:42;;;;;;;1.10;0.73;;;29.00;1.00;;;;;;5137950;27;20500;-74
2022/06/29 13:16:10;;;;;;;1.33;0.90;;;28.90;1.00;;;;;;5119715;27;20447;-74
2022/06/29 13:18:39;;;;;;;2.20;2.00;;;28.90;1.00;;;;;;5138113;27;20575;-74
2022/06/29 13:21:07;;;;;;;1.50;1.20;;;28.80;1.00;;;;;;5137349;27;20902;-75
2022/06/29 13:23:35;;;;;;;1.43;0.80;;;28.50;1.00;;;;;;5138094;27;20451;-74